sensor_id;sensor_type;location;lat;lon;timestamp;pressure;altitude;pressure_sealevel;temperature;humidity
78073;BME280;67281;48.770;11.440;2024-03-23T00:53:39;96579.19;;;18.41;48.88
78073;BME280;67281;48.770;11.440;2024-03-23T00:56:26;96573.25;;;18.38;48.79
78073;BME280;67281;48.770;11.440;2024-03-23T00:59:12;96570.59;;;18.38;48.77
78073;BME280;67281;48.770;11.440;2024-03-23T01:01:59;96567.13;;;18.38;48.18
78073;BME280;67281;48.770;11.440;2024-03-23T01:04:46;96561.97;;;18.36;48.81
78073;BME280;67281;48.770;11.440;2024-03-23T01:07:32;96559.50;;;18.35;48.15
78073;BME280;67281;48.770;11.440;2024-03-23T01:10:21;96546.25;;;18.35;48.56
78073;BME280;67281;48.770;11.440;2024-03-23T01:13:08;96540.09;;;18.34;48.46
78073;BME280;67281;48.770;11.440;2024-03-23T01:15:56;96533.16;;;18.33;48.83
78073;BME280;67281;48.770;11.440;2024-03-23T01:18:42;96537.81;;;18.31;48.08
78073;BME280;67281;48.770;11.440;2024-03-23T01:21:29;96538.78;;;18.30;48.82
78073;BME280;67281;48.770;11.440;2024-03-23T01:24:16;96545.94;;;18.30;48.97
78073;BME280;67281;48.770;11.440;2024-03-23T01:27:05;96544.94;;;18.31;47.92
78073;BME280;67281;48.770;11.440;2024-03-23T01:29:52;96540.78;;;18.28;48.70
78073;BME280;67281;48.770;11.440;2024-03-23T01:32:38;96539.13;;;18.27;48.67
78073;BME280;67281;48.770;11.440;2024-03-23T01:35:25;96532.19;;;18.26;48.66
78073;BME280;67281;48.770;11.440;2024-03-23T01:38:12;96526.22;;;18.24;48.04
78073;BME280;67281;48.770;11.440;2024-03-23T01:40:58;96529.88;;;18.23;48.36
78073;BME280;67281;48.770;11.440;2024-03-23T01:43:47;96531.03;;;18.21;48.48
78073;BME280;67281;48.770;11.440;2024-03-23T01:46:34;96518.63;;;18.21;48.59
78073;BME280;67281;48.770;11.440;2024-03-23T01:49:21;96519.63;;;18.20;48.47
78073;BME280;67281;48.770;11.440;2024-03-23T01:52:07;96517.97;;;18.19;48.58
78073;BME280;67281;48.770;11.440;2024-03-23T01:54:54;96511.00;;;18.18;48.30
78073;BME280;67281;48.770;11.440;2024-03-23T01:57:41;96507.69;;;18.16;48.50
78073;BME280;67281;48.770;11.440;2024-03-23T02:00:30;96501.41;;;18.17;48.61
78073;BME280;67281;48.770;11.440;2024-03-23T02:03:23;96497.25;;;18.15;48.16
78073;BME280;67281;48.770;11.440;2024-03-23T02:06:10;96488.47;;;18.14;48.29
78073;BME280;67281;48.770;11.440;2024-03-23T02:08:57;96482.34;;;18.14;48.00
78073;BME280;67281;48.770;11.440;2024-03-23T02:11:44;96487.00;;;18.12;48.23
78073;BME280;67281;48.770;11.440;2024-03-23T02:14:31;96485.34;;;18.11;48.62
78073;BME280;67281;48.770;11.440;2024-03-23T02:17:20;96484.53;;;18.10;48.60
78073;BME280;67281;48.770;11.440;2024-03-23T02:20:08;96473.25;;;18.08;47.98
78073;BME280;67281;48.770;11.440;2024-03-23T02:22:57;96472.44;;;18.08;47.97
78073;BME280;67281;48.770;11.440;2024-03-23T02:25:44;96466.31;;;18.07;48.47
78073;BME280;67281;48.770;11.440;2024-03-23T02:28:31;96464.66;;;18.06;47.98
78073;BME280;67281;48.770;11.440;2024-03-23T02:31:18;96459.69;;;18.03;47.85
78073;BME280;67281;48.770;11.440;2024-03-23T02:34:04;96442.78;;;18.04;48.25
78073;BME280;67281;48.770;11.440;2024-03-23T02:36:51;96446.44;;;18.03;48.15
78073;BME280;67281;48.770;11.440;2024-03-23T02:39:40;96447.44;;;18.02;47.87
78073;BME280;67281;48.770;11.440;2024-03-23T02:42:27;96437.00;;;18.00;48.22
78073;BME280;67281;48.770;11.440;2024-03-23T02:45:13;96444.13;;;18.00;48.31
78073;BME280;67281;48.770;11.440;2024-03-23T02:48:00;96437.19;;;17.99;47.72
78073;BME280;67281;48.770;11.440;2024-03-23T02:50:46;96432.88;;;17.98;48.43
78073;BME280;67281;48.770;11.440;2024-03-23T02:53:34;96435.88;;;17.95;48.45
78073;BME280;67281;48.770;11.440;2024-03-23T02:56:23;96427.09;;;17.94;48.55
78073;BME280;67281;48.770;11.440;2024-03-23T02:59:10;96430.94;;;17.92;48.26
78073;BME280;67281;48.770;11.440;2024-03-23T03:01:57;96408.91;;;17.91;47.84
78073;BME280;67281;48.770;11.440;2024-03-23T03:04:43;96407.25;;;17.90;48.50
78073;BME280;67281;48.770;11.440;2024-03-23T03:07:30;96397.63;;;17.89;48.39
78073;BME280;67281;48.770;11.440;2024-03-23T03:10:16;96405.75;;;17.88;48.16
78073;BME280;67281;48.770;11.440;2024-03-23T03:13:06;96390.03;;;17.86;47.85
78073;BME280;67281;48.770;11.440;2024-03-23T03:15:52;96381.25;;;17.86;47.65
78073;BME280;67281;48.770;11.440;2024-03-23T03:18:39;96374.31;;;17.85;48.36
78073;BME280;67281;48.770;11.440;2024-03-23T03:21:26;96367.56;;;17.82;47.75
78073;BME280;67281;48.770;11.440;2024-03-23T03:24:13;96377.97;;;17.84;47.93
78073;BME280;67281;48.770;11.440;2024-03-23T03:27:00;96379.97;;;17.82;47.54
78073;BME280;67281;48.770;11.440;2024-03-23T03:29:49;96381.59;;;17.83;47.52
78073;BME280;67281;48.770;11.440;2024-03-23T03:32:36;96374.69;;;17.82;48.21
78073;BME280;67281;48.770;11.440;2024-03-23T03:35:23;96367.91;;;17.79;47.71
78073;BME280;67281;48.770;11.440;2024-03-23T03:38:09;96348.34;;;17.80;47.67
78073;BME280;67281;48.770;11.440;2024-03-23T03:40:56;96335.28;;;17.79;47.47
78073;BME280;67281;48.770;11.440;2024-03-23T03:43:42;96346.88;;;17.78;47.43
78073;BME280;67281;48.770;11.440;2024-03-23T03:46:32;96339.28;;;17.75;47.73
78073;BME280;67281;48.770;11.440;2024-03-23T03:49:18;96345.56;;;17.73;47.71
78073;BME280;67281;48.770;11.440;2024-03-23T03:52:05;96336.63;;;17.75;47.30
78073;BME280;67281;48.770;11.440;2024-03-23T03:55:00;96341.94;;;17.75;47.98
78073;BME280;67281;48.770;11.440;2024-03-23T03:57:47;96350.22;;;17.71;47.49
78073;BME280;67281;48.770;11.440;2024-03-23T04:00:34;96330.19;;;17.69;47.73
78073;BME280;67281;48.770;11.440;2024-03-23T04:03:23;96332.69;;;17.70;47.57
78073;BME280;67281;48.770;11.440;2024-03-23T04:06:09;96330.19;;;17.69;47.28
78073;BME280;67281;48.770;11.440;2024-03-23T04:08:56;96314.66;;;17.66;47.19
78073;BME280;67281;48.770;11.440;2024-03-23T04:11:42;96315.97;;;17.62;47.05
78073;BME280;67281;48.770;11.440;2024-03-23T04:14:29;96307.19;;;17.61;47.42
78073;BME280;67281;48.770;11.440;2024-03-23T04:17:16;96301.06;;;17.61;47.00
78073;BME280;67281;48.770;11.440;2024-03-23T04:20:06;96297.13;;;17.57;47.44
78073;BME280;67281;48.770;11.440;2024-03-23T04:22:53;96297.13;;;17.57;47.72
78073;BME280;67281;48.770;11.440;2024-03-23T04:25:40;96303.25;;;17.57;46.87
78073;BME280;67281;48.770;11.440;2024-03-23T04:28:26;96301.75;;;17.55;47.43
78073;BME280;67281;48.770;11.440;2024-03-23T04:31:13;96291.34;;;17.53;47.06
78073;BME280;67281;48.770;11.440;2024-03-23T04:34:00;96298.13;;;17.56;47.46
78073;BME280;67281;48.770;11.440;2024-03-23T04:36:49;96283.56;;;17.52;47.36
78073;BME280;67281;48.770;11.440;2024-03-23T04:39:36;96294.81;;;17.54;47.32
78073;BME280;67281;48.770;11.440;2024-03-23T04:42:23;96294.34;;;17.50;47.16
78073;BME280;67281;48.770;11.440;2024-03-23T04:45:10;96288.38;;;17.48;47.16
78073;BME280;67281;48.770;11.440;2024-03-23T04:47:56;96286.56;;;17.49;47.61
78073;BME280;67281;48.770;11.440;2024-03-23T04:50:43;96284.91;;;17.48;47.45
78073;BME280;67281;48.770;11.440;2024-03-23T04:53:32;96282.63;;;17.45;47.29
78073;BME280;67281;48.770;11.440;2024-03-23T04:56:19;96282.44;;;17.46;47.47
78073;BME280;67281;48.770;11.440;2024-03-23T04:59:06;96276.16;;;17.47;46.97
78073;BME280;67281;48.770;11.440;2024-03-23T05:01:52;96277.16;;;17.46;47.15
78073;BME280;67281;48.770;11.440;2024-03-23T05:04:39;96265.56;;;17.47;47.07
78073;BME280;67281;48.770;11.440;2024-03-23T05:07:26;96261.25;;;17.46;46.62
78073;BME280;67281;48.770;11.440;2024-03-23T05:10:15;96270.19;;;17.45;47.16
78073;BME280;67281;48.770;11.440;2024-03-23T05:13:02;96259.78;;;17.44;47.43
78073;BME280;67281;48.770;11.440;2024-03-23T05:15:52;96254.47;;;17.44;47.05
78073;BME280;67281;48.770;11.440;2024-03-23T05:18:38;96256.66;;;17.40;47.37
78073;BME280;67281;48.770;11.440;2024-03-23T05:21:25;96261.78;;;17.41;47.30
78073;BME280;67281;48.770;11.440;2024-03-23T05:24:12;96251.19;;;17.41;47.05
78073;BME280;67281;48.770;11.440;2024-03-23T05:27:01;96237.75;;;17.43;47.26
78073;BME280;67281;48.770;11.440;2024-03-23T05:29:48;96238.94;;;17.40;47.38
78073;BME280;67281;48.770;11.440;2024-03-23T05:32:35;96241.59;;;17.40;47.14
78073;BME280;67281;48.770;11.440;2024-03-23T05:35:21;96246.72;;;17.42;46.97
78073;BME280;67281;48.770;11.440;2024-03-23T05:38:08;96228.34;;;17.40;46.77
78073;BME280;67281;48.770;11.440;2024-03-23T05:40:54;96219.41;;;17.41;47.18
78073;BME280;67281;48.770;11.440;2024-03-23T05:43:44;96222.22;;;17.40;46.86
78073;BME280;67281;48.770;11.440;2024-03-23T05:46:30;96215.94;;;17.41;46.66
78073;BME280;67281;48.770;11.440;2024-03-23T05:49:17;96204.69;;;17.39;47.23
78073;BME280;67281;48.770;11.440;2024-03-23T05:52:04;96189.97;;;17.36;46.77
78073;BME280;67281;48.770;11.440;2024-03-23T05:54:51;96181.03;;;17.37;46.49
78073;BME280;67281;48.770;11.440;2024-03-23T05:57:38;96170.44;;;17.37;47.27
78073;BME280;67281;48.770;11.440;2024-03-23T06:00:27;96171.25;;;17.38;46.96
78073;BME280;67281;48.770;11.440;2024-03-23T06:03:14;96171.91;;;17.40;46.90
78073;BME280;67281;48.770;11.440;2024-03-23T06:06:00;96172.56;;;17.42;46.70
78073;BME280;67281;48.770;11.440;2024-03-23T06:08:47;96148.72;;;17.42;46.53
78073;BME280;67281;48.770;11.440;2024-03-23T06:11:33;96143.44;;;17.42;46.16
78073;BME280;67281;48.770;11.440;2024-03-23T06:14:20;96147.72;;;17.43;46.39
78073;BME280;67281;48.770;11.440;2024-03-23T06:17:09;96137.94;;;17.44;46.32
78073;BME280;67281;48.770;11.440;2024-03-23T06:19:56;96150.19;;;17.45;46.28
78073;BME280;67281;48.770;11.440;2024-03-23T06:22:42;96148.53;;;17.44;46.29
78073;BME280;67281;48.770;11.440;2024-03-23T06:25:29;96143.06;;;17.45;46.41
78073;BME280;67281;48.770;11.440;2024-03-23T06:28:16;96150.84;;;17.47;46.67
78073;BME280;67281;48.770;11.440;2024-03-23T06:31:03;96144.06;;;17.44;46.87
78073;BME280;67281;48.770;11.440;2024-03-23T06:33:52;96147.72;;;17.43;46.64
78073;BME280;67281;48.770;11.440;2024-03-23T06:36:39;96146.25;;;17.40;46.30
78073;BME280;67281;48.770;11.440;2024-03-23T06:39:25;96134.19;;;17.38;46.60
78073;BME280;67281;48.770;11.440;2024-03-23T06:42:12;96137.00;;;17.36;46.71
78073;BME280;67281;48.770;11.440;2024-03-23T06:45:03;96138.00;;;17.35;46.67
78073;BME280;67281;48.770;11.440;2024-03-23T06:47:50;96133.72;;;17.34;46.66
78073;BME280;67281;48.770;11.440;2024-03-23T06:50:39;96132.88;;;17.34;46.97
78073;BME280;67281;48.770;11.440;2024-03-23T06:53:26;96133.72;;;17.34;46.85
78073;BME280;67281;48.770;11.440;2024-03-23T06:56:13;96126.94;;;17.32;46.87
78073;BME280;67281;48.770;11.440;2024-03-23T06:58:59;96124.31;;;17.32;46.37
78073;BME280;67281;48.770;11.440;2024-03-23T07:01:46;96123.31;;;17.33;46.16
78073;BME280;67281;48.770;11.440;2024-03-23T07:04:33;96147.47;;;17.30;46.19
78073;BME280;67281;48.770;11.440;2024-03-23T07:07:22;96195.16;;;17.30;46.73
78073;BME280;67281;48.770;11.440;2024-03-23T07:10:09;96208.38;;;17.30;46.48
78073;BME280;67281;48.770;11.440;2024-03-23T07:12:56;96214.69;;;17.29;46.77
78073;BME280;67281;48.770;11.440;2024-03-23T07:15:42;96219.63;;;17.32;46.55
78073;BME280;67281;48.770;11.440;2024-03-23T07:18:29;96232.38;;;17.28;47.06
78073;BME280;67281;48.770;11.440;2024-03-23T07:21:16;96245.44;;;17.30;47.33
78073;BME280;67281;48.770;11.440;2024-03-23T07:24:05;96261.34;;;17.30;47.00
78073;BME280;67281;48.770;11.440;2024-03-23T07:26:52;96285.50;;;17.27;47.38
78073;BME280;67281;48.770;11.440;2024-03-23T07:29:38;96284.03;;;17.24;47.34
78073;BME280;67281;48.770;11.440;2024-03-23T07:32:25;96306.38;;;17.22;46.83
78073;BME280;67281;48.770;11.440;2024-03-23T07:35:12;96315.50;;;17.19;47.52
78073;BME280;67281;48.770;11.440;2024-03-23T07:37:59;96318.78;;;17.21;47.33
78073;BME280;67281;48.770;11.440;2024-03-23T07:40:48;96348.56;;;17.23;47.17
78073;BME280;67281;48.770;11.440;2024-03-23T07:43:35;96334.50;;;17.23;46.85
78073;BME280;67281;48.770;11.440;2024-03-23T07:46:22;96348.75;;;17.22;46.83
78073;BME280;67281;48.770;11.440;2024-03-23T07:49:08;96334.69;;;17.21;47.57
78073;BME280;67281;48.770;11.440;2024-03-23T07:51:56;96338.97;;;17.22;47.53
78073;BME280;67281;48.770;11.440;2024-03-23T07:54:42;96339.97;;;17.21;47.22
78073;BME280;67281;48.770;11.440;2024-03-23T07:57:32;96338.16;;;17.22;47.25
78073;BME280;67281;48.770;11.440;2024-03-23T08:00:19;96338.50;;;17.19;47.24
78073;BME280;67281;48.770;11.440;2024-03-23T08:03:06;96333.22;;;17.11;47.76
78073;BME280;67281;48.770;11.440;2024-03-23T08:05:53;96332.72;;;17.15;47.63
78073;BME280;67281;48.770;11.440;2024-03-23T08:08:40;96335.69;;;17.20;47.17
78073;BME280;67281;48.770;11.440;2024-03-23T08:11:28;96344.63;;;17.19;46.91
78073;BME280;67281;48.770;11.440;2024-03-23T08:14:17;96348.91;;;17.20;46.88
78073;BME280;67281;48.770;11.440;2024-03-23T08:17:04;96354.53;;;17.25;47.03
78073;BME280;67281;48.770;11.440;2024-03-23T08:19:51;96352.88;;;17.24;46.89
78073;BME280;67281;48.770;11.440;2024-03-23T08:22:38;96353.72;;;17.17;47.36
78073;BME280;67281;48.770;11.440;2024-03-23T08:25:25;96366.78;;;17.18;47.47
78073;BME280;67281;48.770;11.440;2024-03-23T08:28:11;96370.66;;;17.07;47.25
78073;BME280;67281;48.770;11.440;2024-03-23T08:31:01;96379.19;;;17.18;47.20
78073;BME280;67281;48.770;11.440;2024-03-23T08:33:48;96365.63;;;17.21;46.86
78073;BME280;67281;48.770;11.440;2024-03-23T08:36:35;96358.00;;;17.26;47.28
78073;BME280;67281;48.770;11.440;2024-03-23T08:39:21;96369.75;;;17.23;47.49
78073;BME280;67281;48.770;11.440;2024-03-23T08:42:08;96374.91;;;17.17;46.89
78073;BME280;67281;48.770;11.440;2024-03-23T08:44:54;96379.03;;;17.19;46.87
78073;BME280;67281;48.770;11.440;2024-03-23T08:47:44;96391.09;;;17.22;47.00
78073;BME280;67281;48.770;11.440;2024-03-23T08:50:30;96406.66;;;17.17;47.32
78073;BME280;67281;48.770;11.440;2024-03-23T08:53:17;96421.06;;;17.14;46.95
78073;BME280;67281;48.770;11.440;2024-03-23T08:56:05;96424.94;;;17.03;47.51
78073;BME280;67281;48.770;11.440;2024-03-23T08:58:52;96435.00;;;17.08;47.11
78073;BME280;67281;48.770;11.440;2024-03-23T09:01:38;96423.88;;;17.13;46.99
78073;BME280;67281;48.770;11.440;2024-03-23T09:04:27;96431.00;;;17.12;47.49
78073;BME280;67281;48.770;11.440;2024-03-23T09:07:14;96413.63;;;17.18;46.90
78073;BME280;67281;48.770;11.440;2024-03-23T09:10:00;96428.84;;;17.16;47.11
78073;BME280;67281;48.770;11.440;2024-03-23T09:12:47;96407.66;;;17.24;47.02
78073;BME280;67281;48.770;11.440;2024-03-23T09:15:34;96398.38;;;17.28;46.94
78073;BME280;67281;48.770;11.440;2024-03-23T09:18:22;96408.31;;;17.26;46.56
78073;BME280;67281;48.770;11.440;2024-03-23T09:21:13;96421.88;;;17.31;46.89
78073;BME280;67281;48.770;11.440;2024-03-23T09:24:03;96410.63;;;17.29;46.49
78073;BME280;67281;48.770;11.440;2024-03-23T09:26:51;96430.81;;;17.30;46.52
78073;BME280;67281;48.770;11.440;2024-03-23T09:29:38;96439.25;;;17.33;47.22
78073;BME280;67281;48.770;11.440;2024-03-23T09:32:25;96428.66;;;17.33;47.10
78073;BME280;67281;48.770;11.440;2024-03-23T09:35:11;96436.41;;;17.35;46.38
78073;BME280;67281;48.770;11.440;2024-03-23T09:38:01;96443.69;;;17.41;47.00
78073;BME280;67281;48.770;11.440;2024-03-23T09:40:48;96463.72;;;17.35;47.01
78073;BME280;67281;48.770;11.440;2024-03-23T09:43:36;96458.75;;;17.40;46.77
78073;BME280;67281;48.770;11.440;2024-03-23T09:46:23;96465.69;;;17.41;46.52
78073;BME280;67281;48.770;11.440;2024-03-23T09:49:10;96462.72;;;17.36;46.98
78073;BME280;67281;48.770;11.440;2024-03-23T09:51:57;96458.09;;;17.38;46.63
78073;BME280;67281;48.770;11.440;2024-03-23T09:54:46;96476.81;;;17.37;47.04
78073;BME280;67281;48.770;11.440;2024-03-23T09:57:32;96497.00;;;17.38;47.27
78073;BME280;67281;48.770;11.440;2024-03-23T10:00:19;96503.28;;;17.45;47.01
78073;BME280;67281;48.770;11.440;2024-03-23T10:03:06;96504.75;;;17.48;46.38
78073;BME280;67281;48.770;11.440;2024-03-23T10:06:00;96522.31;;;17.49;46.89
78073;BME280;67281;48.770;11.440;2024-03-23T10:08:48;96517.16;;;17.47;46.57
78073;BME280;67281;48.770;11.440;2024-03-23T10:11:37;96538.84;;;17.51;46.39
78073;BME280;67281;48.770;11.440;2024-03-23T10:14:29;96534.72;;;17.48;46.09
78073;BME280;67281;48.770;11.440;2024-03-23T10:17:16;96549.28;;;17.44;46.88
78073;BME280;67281;48.770;11.440;2024-03-23T10:20:10;96540.53;;;17.44;46.63
78073;BME280;67281;48.770;11.440;2024-03-23T10:22:56;96549.47;;;17.42;46.24
78073;BME280;67281;48.770;11.440;2024-03-23T10:25:43;96559.91;;;17.36;46.77
78073;BME280;67281;48.770;11.440;2024-03-23T10:28:33;96544.50;;;17.31;46.94
78073;BME280;67281;48.770;11.440;2024-03-23T10:31:21;96548.81;;;17.32;46.55
78073;BME280;67281;48.770;11.440;2024-03-23T10:34:07;96538.72;;;17.36;46.69
78073;BME280;67281;48.770;11.440;2024-03-23T10:36:54;96565.19;;;17.36;46.10
78073;BME280;67281;48.770;11.440;2024-03-23T10:39:42;96566.00;;;17.36;46.40
78073;BME280;67281;48.770;11.440;2024-03-23T10:42:29;96569.50;;;17.37;46.00
78073;BME280;67281;48.770;11.440;2024-03-23T10:45:20;96572.31;;;17.35;46.08
78073;BME280;67281;48.770;11.440;2024-03-23T10:48:07;96578.75;;;17.33;45.92
78073;BME280;67281;48.770;11.440;2024-03-23T10:50:54;96567.50;;;17.31;46.06
78073;BME280;67281;48.770;11.440;2024-03-23T10:53:41;96552.13;;;17.34;46.33
78073;BME280;67281;48.770;11.440;2024-03-23T10:56:28;96538.38;;;17.39;46.20
78073;BME280;67281;48.770;11.440;2024-03-23T10:59:16;96536.72;;;17.38;45.55
78073;BME280;67281;48.770;11.440;2024-03-23T11:02:06;96533.56;;;17.42;45.77
78073;BME280;67281;48.770;11.440;2024-03-23T11:04:53;96534.88;;;17.47;45.91
78073;BME280;67281;48.770;11.440;2024-03-23T11:07:49;96565.03;;;17.46;46.10
78073;BME280;67281;48.770;11.440;2024-03-23T11:10:36;96589.69;;;17.46;45.75
78073;BME280;67281;48.770;11.440;2024-03-23T11:13:23;96587.88;;;17.47;45.52
78073;BME280;67281;48.770;11.440;2024-03-23T11:16:14;96579.25;;;17.45;45.58
78073;BME280;67281;48.770;11.440;2024-03-23T11:22:38;96595.47;;;17.41;45.86
78073;BME280;67281;48.770;11.440;2024-03-23T11:25:25;96593.31;;;17.37;45.52
78073;BME280;67281;48.770;11.440;2024-03-23T11:28:12;96599.63;;;17.36;45.67
78073;BME280;67281;48.770;11.440;2024-03-23T11:30:59;96614.84;;;17.34;45.43
78073;BME280;67281;48.770;11.440;2024-03-23T11:33:46;96620.47;;;17.31;46.02
78073;BME280;67281;48.770;11.440;2024-03-23T11:36:32;96627.41;;;17.32;45.91
78073;BME280;67281;48.770;11.440;2024-03-23T11:39:22;96621.13;;;17.33;45.45
78073;BME280;67281;48.770;11.440;2024-03-23T11:42:08;96622.78;;;17.34;46.26
78073;BME280;67281;48.770;11.440;2024-03-23T11:44:55;96629.56;;;17.36;45.06
78073;BME280;67281;48.770;11.440;2024-03-23T11:47:43;96632.72;;;17.32;45.76
78073;BME280;67281;48.770;11.440;2024-03-23T11:50:29;96648.25;;;17.27;45.88
78073;BME280;67281;48.770;11.440;2024-03-23T11:53:17;96646.13;;;17.30;45.60
78073;BME280;67281;48.770;11.440;2024-03-23T11:56:07;96626.59;;;17.39;45.42
78073;BME280;67281;48.770;11.440;2024-03-23T11:58:53;96623.78;;;17.49;45.32
78073;BME280;67281;48.770;11.440;2024-03-23T12:01:40;96605.41;;;17.48;44.98
78073;BME280;67281;48.770;11.440;2024-03-23T12:04:27;96628.09;;;17.50;45.12
78073;BME280;67281;48.770;11.440;2024-03-23T12:07:16;96617.16;;;17.53;44.53
78073;BME280;67281;48.770;11.440;2024-03-23T12:10:04;96622.97;;;17.49;45.58
78073;BME280;67281;48.770;11.440;2024-03-23T12:13:02;96620.97;;;17.51;45.26
78073;BME280;67281;48.770;11.440;2024-03-23T12:15:50;96620.81;;;17.52;44.63
78073;BME280;67281;48.770;11.440;2024-03-23T12:18:38;96630.09;;;17.48;45.20
78073;BME280;67281;48.770;11.440;2024-03-23T12:21:24;96605.41;;;17.48;45.29
78073;BME280;67281;48.770;11.440;2024-03-23T12:24:11;96593.97;;;17.55;44.43
78073;BME280;67281;48.770;11.440;2024-03-23T12:27:02;96619.31;;;17.50;44.71
78073;BME280;67281;48.770;11.440;2024-03-23T12:29:51;96617.34;;;17.52;44.79
78073;BME280;67281;48.770;11.440;2024-03-23T12:32:38;96602.59;;;17.57;44.58
78073;BME280;67281;48.770;11.440;2024-03-23T12:35:24;96587.88;;;17.71;44.63
78073;BME280;67281;48.770;11.440;2024-03-23T12:38:11;96595.81;;;17.71;43.91
78073;BME280;67281;48.770;11.440;2024-03-23T12:40:57;96608.25;;;17.70;44.56
78073;BME280;67281;48.770;11.440;2024-03-23T12:43:44;96587.72;;;17.72;43.99
78073;BME280;67281;48.770;11.440;2024-03-23T12:46:33;96596.81;;;17.70;43.82
78073;BME280;67281;48.770;11.440;2024-03-23T12:49:20;96599.28;;;17.63;44.82
78073;BME280;67281;48.770;11.440;2024-03-23T12:52:06;96591.16;;;17.57;44.00
78073;BME280;67281;48.770;11.440;2024-03-23T12:54:54;96595.16;;;17.53;44.73
78073;BME280;67281;48.770;11.440;2024-03-23T12:57:42;96594.31;;;17.52;45.15
78073;BME280;67281;48.770;11.440;2024-03-23T13:00:28;96601.28;;;17.53;44.71
78073;BME280;67281;48.770;11.440;2024-03-23T13:03:18;96600.94;;;17.48;44.85
78073;BME280;67281;48.770;11.440;2024-03-23T13:06:05;96608.22;;;17.46;45.16
78073;BME280;67281;48.770;11.440;2024-03-23T13:08:52;96609.22;;;17.45;45.30
78073;BME280;67281;48.770;11.440;2024-03-23T13:11:38;96619.16;;;17.43;45.46
78073;BME280;67281;48.770;11.440;2024-03-23T13:14:25;96619.81;;;17.45;45.01
78073;BME280;67281;48.770;11.440;2024-03-23T13:17:11;96623.13;;;17.39;45.07
78073;BME280;67281;48.770;11.440;2024-03-23T13:20:00;96620.28;;;17.24;44.23
78073;BME280;67281;48.770;11.440;2024-03-23T13:22:47;96642.78;;;17.12;44.59
78073;BME280;67281;48.770;11.440;2024-03-23T13:25:34;96649.56;;;17.15;44.67
78073;BME280;67281;48.770;11.440;2024-03-23T13:28:20;96652.06;;;17.08;44.44
78073;BME280;67281;48.770;11.440;2024-03-23T13:31:08;96648.56;;;16.99;44.52
78073;BME280;67281;48.770;11.440;2024-03-23T13:33:54;96640.97;;;16.96;44.31
78073;BME280;67281;48.770;11.440;2024-03-23T13:36:44;96648.91;;;17.04;45.01
78073;BME280;67281;48.770;11.440;2024-03-23T13:39:31;96644.28;;;16.98;44.80
78073;BME280;67281;48.770;11.440;2024-03-23T13:42:20;96635.16;;;16.93;44.64
78073;BME280;67281;48.770;11.440;2024-03-23T13:45:08;96636.63;;;16.87;44.84
78073;BME280;67281;48.770;11.440;2024-03-23T13:47:54;96648.22;;;16.86;44.02
78073;BME280;67281;48.770;11.440;2024-03-23T13:50:41;96645.91;;;16.91;45.04
78073;BME280;67281;48.770;11.440;2024-03-23T13:53:31;96653.19;;;16.97;45.36
78073;BME280;67281;48.770;11.440;2024-03-23T13:56:18;96655.72;;;17.07;44.42
78073;BME280;67281;48.770;11.440;2024-03-23T13:59:05;96648.91;;;16.96;45.00
78073;BME280;67281;48.770;11.440;2024-03-23T14:01:52;96636.16;;;17.00;44.21
78073;BME280;67281;48.770;11.440;2024-03-23T14:04:38;96627.41;;;17.07;45.08
78073;BME280;67281;48.770;11.440;2024-03-23T14:07:25;96623.25;;;17.13;44.86
78073;BME280;67281;48.770;11.440;2024-03-23T14:10:14;96599.28;;;17.15;44.84
78073;BME280;67281;48.770;11.440;2024-03-23T14:13:01;96615.00;;;17.16;44.86
78073;BME280;67281;48.770;11.440;2024-03-23T14:15:52;96628.41;;;17.06;45.04
78073;BME280;67281;48.770;11.440;2024-03-23T14:18:39;96634.19;;;17.10;44.65
78073;BME280;67281;48.770;11.440;2024-03-23T14:21:25;96629.03;;;17.08;44.85
78073;BME280;67281;48.770;11.440;2024-03-23T14:24:12;96621.09;;;17.08;44.47
78073;BME280;67281;48.770;11.440;2024-03-23T14:27:02;96613.00;;;17.10;44.77
78073;BME280;67281;48.770;11.440;2024-03-23T14:29:49;96611.34;;;16.93;44.12
78073;BME280;67281;48.770;11.440;2024-03-23T14:32:38;96625.72;;;16.82;44.76
78073;BME280;67281;48.770;11.440;2024-03-23T14:35:24;96605.22;;;16.92;45.03
78073;BME280;67281;48.770;11.440;2024-03-23T14:38:11;96620.78;;;16.95;43.32
78073;BME280;67281;48.770;11.440;2024-03-23T14:40:58;96605.72;;;16.88;44.13
78073;BME280;67281;48.770;11.440;2024-03-23T14:43:47;96605.22;;;16.92;44.26
78073;BME280;67281;48.770;11.440;2024-03-23T14:46:34;96588.16;;;16.79;42.81
78073;BME280;67281;48.770;11.440;2024-03-23T14:49:21;96579.72;;;16.83;43.73
78073;BME280;67281;48.770;11.440;2024-03-23T14:52:07;96585.16;;;16.73;43.56
78073;BME280;67281;48.770;11.440;2024-03-23T14:54:54;96592.47;;;16.80;43.34
78073;BME280;67281;48.770;11.440;2024-03-23T14:57:42;96586.22;;;16.97;44.31
78073;BME280;67281;48.770;11.440;2024-03-23T15:00:31;96584.72;;;17.11;43.54
78073;BME280;67281;48.770;11.440;2024-03-23T15:03:18;96571.81;;;17.16;43.90
78073;BME280;67281;48.770;11.440;2024-03-23T15:06:05;96582.88;;;17.11;43.90
78073;BME280;67281;48.770;11.440;2024-03-23T15:08:51;96582.06;;;17.11;43.71
78073;BME280;67281;48.770;11.440;2024-03-23T15:11:38;96577.44;;;17.04;42.51
78073;BME280;67281;48.770;11.440;2024-03-23T15:14:24;96579.59;;;17.17;42.83
78073;BME280;67281;48.770;11.440;2024-03-23T15:17:14;96582.88;;;17.11;42.44
78073;BME280;67281;48.770;11.440;2024-03-23T15:20:00;96588.84;;;17.37;42.43
78073;BME280;67281;48.770;11.440;2024-03-23T15:22:47;96584.22;;;17.56;42.34
78073;BME280;67281;48.770;11.440;2024-03-23T15:25:33;96586.03;;;17.55;42.66
78073;BME280;67281;48.770;11.440;2024-03-23T15:28:20;96580.41;;;17.42;41.91
78073;BME280;67281;48.770;11.440;2024-03-23T15:31:07;96593.66;;;17.34;42.24